Time;durP1;ratioP1;P1;durP2;ratioP2;P2;SDS_P1;SDS_P2;PMS_P1;PMS_P2;Temp;Humidity;BMP_temperature;BMP_pressure;BME280_temperature;BME280_humidity;BME280_pressure;Samples;Min_cycle;Max_cycle;Signal;HPM_P1;HPM_P2
2021/12/24 00:01:10;;;;;;;7.50;3.60;;;;;;;-11.70;69.49;99288.97;4918871;29;20075;-86
2021/12/24 00:03:38;;;;;;;6.80;3.60;;;;;;;-11.79;69.80;99275.63;4920786;29;20064;-86
2021/12/24 00:06:06;;;;;;;7.05;3.53;;;;;;;-11.76;69.47;99271.72;4908008;29;20431;-85
2021/12/24 00:08:34;;;;;;;7.53;3.42;;;;;;;-11.75;69.56;99291.09;4932434;29;20067;-85
2021/12/24 00:11:02;;;;;;;7.90;3.83;;;;;;;-11.67;69.95;99280.78;4888516;29;20084;-85
2021/12/24 00:13:38;;;;;;;4.90;2.75;;;;;;;-11.56;69.72;99290.97;4922576;29;20066;-82
2021/12/24 00:16:31;;;;;;;4.75;3.08;;;;;;;-11.57;69.50;99266.53;4925829;29;20702;-84
2021/12/24 00:19:12;;;;;;;5.85;3.25;;;;;;;-11.37;69.00;99285.75;4890626;29;20052;-83
2021/12/24 00:35:34;;;;;;;6.88;4.00;;;;;;;-11.56;69.52;99262.34;4941107;29;20063;-86
2021/12/24 00:38:05;;;;;;;7.53;3.22;;;;;;;-11.48;69.72;99273.94;4924795;29;20146;-83
2021/12/24 00:40:35;;;;;;;7.88;3.53;;;;;;;-11.34;69.29;99257.38;4942312;29;20055;-83
2021/12/24 00:43:03;;;;;;;7.00;3.40;;;;;;;-11.34;68.80;99250.69;4939190;29;20063;-82
2021/12/24 00:45:34;;;;;;;7.05;3.40;;;;;;;-11.16;69.12;99263.88;4922165;29;20079;-81
2021/12/24 00:48:04;;;;;;;8.15;3.75;;;;;;;-11.24;68.46;99241.34;4946666;29;20088;-81
2021/12/24 00:50:46;;;;;;;8.07;3.90;;;;;;;-11.10;68.47;99265.97;4963072;29;20107;-83
2021/12/24 00:56:14;;;;;;;7.00;3.55;;;;;;;-11.29;69.49;99246.03;4876518;29;20063;-83
2021/12/24 00:58:42;;;;;;;7.70;3.63;;;;;;;-11.42;69.20;99231.56;4943313;29;20063;-84
2021/12/24 01:01:13;;;;;;;7.03;3.55;;;;;;;-11.52;69.33;99223.16;4944090;29;20052;-84
2021/12/24 01:03:42;;;;;;;7.05;3.25;;;;;;;-11.52;69.55;99250.88;4942775;29;20518;-83
2021/12/24 01:06:11;;;;;;;7.28;3.97;;;;;;;-11.54;69.58;99246.59;4924417;29;20146;-85
2021/12/24 01:08:38;;;;;;;8.35;3.63;;;;;;;-11.40;69.41;99249.31;4914056;29;20056;-84
2021/12/24 01:11:08;;;;;;;7.03;3.58;;;;;;;-11.38;69.87;99231.06;4920462;29;20059;-82
2021/12/24 01:13:36;;;;;;;6.80;3.63;;;;;;;-11.23;69.17;99253.19;4918796;29;20413;-83
2021/12/24 01:16:29;;;;;;;6.63;3.33;;;;;;;-11.19;68.77;99230.84;4917988;29;20048;-83
2021/12/24 01:19:04;;;;;;;7.60;4.00;;;;;;;-11.15;68.36;99216.84;4918673;29;20070;-82
2021/12/24 01:24:19;;;;;;;7.10;4.00;;;;;;;-11.00;68.39;99233.16;4920072;29;20052;-81
2021/12/24 01:41:03;;;;;;;8.18;3.40;;;;;;;-11.40;68.47;99174.59;4888149;29;20113;-81
2021/12/24 01:43:08;;;;;;;7.03;3.60;;;;;;;-11.25;68.89;99205.13;4899424;29;20567;-81
2021/12/24 01:45:36;;;;;;;8.95;3.67;;;;;;;-11.25;68.89;99210.19;4899611;29;20057;-80
2021/12/24 01:48:08;;;;;;;7.43;3.60;;;;;;;-11.26;69.00;99210.94;4898928;29;20524;-81
2021/12/24 01:50:38;;;;;;;7.03;3.30;;;;;;;-11.08;69.04;99229.16;4918239;29;20063;-80
2021/12/24 01:53:08;;;;;;;8.23;3.53;;;;;;;-11.18;68.64;99201.47;4901255;29;20146;-80
2021/12/24 01:55:39;;;;;;;8.80;3.50;;;;;;;-11.05;68.89;99226.00;4886832;29;20056;-81
2021/12/24 01:58:06;;;;;;;10.50;4.32;;;;;;;-11.02;68.89;99223.72;4887049;29;20866;-81
2021/12/24 02:00:41;;;;;;;7.97;3.47;;;;;;;-11.09;68.92;99231.56;4902149;29;20107;-81
2021/12/24 02:03:11;;;;;;;9.98;4.20;;;;;;;-11.23;69.00;99220.41;4901953;29;20103;-81
2021/12/24 02:05:41;;;;;;;10.18;3.95;;;;;;;-11.35;69.22;99223.72;4919204;29;20056;-81
2021/12/24 02:08:10;;;;;;;9.60;4.33;;;;;;;-11.51;69.29;99198.06;4900513;29;20413;-80
2021/12/24 02:10:38;;;;;;;8.90;3.70;;;;;;;-11.42;69.61;99221.50;4901466;29;20293;-81
2021/12/24 02:13:25;;;;;;;9.77;3.22;;;;;;;-11.42;69.54;99221.50;4899006;29;20067;-81
2021/12/24 02:16:16;;;;;;;9.02;3.90;;;;;;;-11.42;69.69;99213.94;4901257;29;20059;-82
2021/12/24 02:30:20;;;;;;;5.40;3.20;;;;;;;-11.50;69.68;99191.41;4892126;29;20052;-80
2021/12/24 02:32:47;;;;;;;9.68;4.10;;;;;;;-11.49;69.98;99185.56;4919266;29;20048;-81
2021/12/24 02:35:14;;;;;;;8.77;3.80;;;;;;;-11.51;69.66;99199.69;4917569;29;20452;-81
2021/12/24 02:37:41;;;;;;;8.13;3.58;;;;;;;-11.55;69.70;99184.34;4918006;29;20090;-81
2021/12/24 02:40:08;;;;;;;7.43;3.83;;;;;;;-11.52;69.53;99181.19;4929721;29;20099;-81
2021/12/24 02:42:35;;;;;;;9.15;3.90;;;;;;;-11.52;69.55;99181.19;4936523;29;20059;-81
2021/12/24 02:45:04;;;;;;;7.30;3.35;;;;;;;-11.52;69.55;99182.84;4936644;29;20059;-82
2021/12/24 02:47:54;;;;;;;8.70;4.00;;;;;;;-11.49;69.60;99176.38;4920269;29;20091;-85
2021/12/24 02:55:37;;;;;;;7.28;3.75;;;;;;;-11.69;69.47;99189.94;4937354;29;20048;-83
2021/12/24 02:58:06;;;;;;;8.00;4.07;;;;;;;-11.71;69.73;99171.28;4904627;29;20642;-85
2021/12/24 03:00:33;;;;;;;9.88;4.07;;;;;;;-11.82;69.65;99151.94;4922292;29;20052;-84
2021/12/24 03:03:00;;;;;;;10.88;4.68;;;;;;;-11.75;69.48;99172.66;4902637;29;20512;-84
2021/12/24 03:05:28;;;;;;;11.52;4.43;;;;;;;-11.76;69.50;99145.72;4933795;29;20143;-85
2021/12/24 03:07:55;;;;;;;8.68;3.97;;;;;;;-11.60;69.33;99157.88;4918077;29;20052;-84
2021/12/24 03:10:23;;;;;;;8.32;4.28;;;;;;;-11.63;69.28;99147.56;4903920;29;20059;-81
2021/12/24 03:12:52;;;;;;;13.32;4.90;;;;;;;-11.49;69.02;99167.94;4919650;29;20079;-81
2021/12/24 03:15:22;;;;;;;10.82;4.72;;;;;;;-11.60;68.84;99141.88;4928517;29;20074;-79
2021/12/24 03:17:51;;;;;;;;;;;;;;;-11.50;69.08;99156.09;4927850;29;20062;-82
2021/12/24 03:20:20;;;;;;;9.90;4.80;;;;;;;-11.40;68.83;99161.06;4920231;29;19930;-81
2021/12/24 03:23:21;;;;;;;7.70;3.47;;;;;;;-11.49;68.43;99142.72;4936280;29;20059;-83
2021/12/24 03:25:35;;;;;;;7.45;3.47;;;;;;;-11.36;68.61;99155.53;4936467;29;20546;-80
2021/12/24 03:28:04;;;;;;;9.82;4.20;;;;;;;-11.49;68.46;99152.81;4936454;29;20114;-83
2021/12/24 03:30:31;;;;;;;12.20;4.68;;;;;;;-11.52;68.68;99147.53;4936359;29;20491;-82
2021/12/24 03:32:59;;;;;;;8.70;4.22;;;;;;;-11.51;68.41;99141.72;4935859;29;20056;-82
2021/12/24 03:35:26;;;;;;;9.75;4.43;;;;;;;-11.44;68.19;99156.56;4919278;29;20071;-81
2021/12/24 03:37:53;;;;;;;9.90;4.57;;;;;;;-11.39;68.56;99158.69;4937447;29;20060;-79
2021/12/24 03:40:20;;;;;;;13.45;5.38;;;;;;;-11.45;68.55;99139.69;4922274;29;20051;-82
2021/12/24 03:42:48;;;;;;;12.98;4.80;;;;;;;-11.37;68.41;99154.66;4922273;29;20059;-81
2021/12/24 03:45:30;;;;;;;9.18;4.75;;;;;;;-11.26;68.86;99158.00;4918473;29;20055;-79
2021/12/24 03:48:02;;;;;;;12.57;4.88;;;;;;;-11.27;68.90;99127.63;4919166;29;20080;-82
2021/12/24 03:56:21;;;;;;;11.90;5.00;;;;;;;-11.18;68.19;99144.34;4916692;29;20075;-83
2021/12/24 03:58:49;;;;;;;7.95;3.78;;;;;;;-11.10;68.60;99144.91;4919006;29;20508;-81
2021/12/24 04:01:36;;;;;;;11.10;4.95;;;;;;;-11.10;68.40;99144.03;4936452;29;20065;-83
2021/12/24 04:04:26;;;;;;;8.27;4.50;;;;;;;-11.08;68.66;99125.72;4954051;29;20055;-80
2021/12/24 04:07:17;;;;;;;12.10;5.05;;;;;;;-11.04;68.39;99130.25;4897426;29;20040;-81
2021/12/24 04:10:04;;;;;;;9.13;4.25;;;;;;;-11.08;68.30;99128.25;4955532;29;20059;-81
2021/12/24 04:12:49;;;;;;;9.93;4.15;;;;;;;-11.21;68.24;99115.47;4950741;29;20103;-82
2021/12/24 04:15:17;;;;;;;9.57;4.63;;;;;;;-11.12;68.96;99121.22;4943654;29;20056;-80
2021/12/24 04:17:45;;;;;;;7.30;3.92;;;;;;;-11.13;68.67;99111.91;4903339;29;20059;-81
2021/12/24 04:25:28;;;;;;;10.73;4.65;;;;;;;-11.00;68.66;99124.69;4917241;29;20036;-81
2021/12/24 04:28:00;;;;;;;8.55;4.25;;;;;;;-10.92;68.48;99110.13;4923885;29;20064;-86
2021/12/24 04:30:34;;;;;;;11.68;4.70;;;;;;;-10.92;68.32;99108.47;4905278;29;20113;-85
2021/12/24 04:33:15;;;;;;;9.32;4.40;;;;;;;-10.94;68.69;99107.47;4909209;29;20074;-89
2021/12/24 04:35:57;;;;;;;11.27;4.38;;;;;;;-10.94;68.80;99089.81;4904054;29;20149;-87
2021/12/24 04:38:39;;;;;;;10.57;4.63;;;;;;;-10.96;68.33;99080.38;4906021;29;20056;-86
2021/12/24 04:53:34;;;;;;;9.02;5.20;;;;;;;-10.81;68.18;99037.75;4895609;29;20394;-87
2021/12/24 05:01:16;;;;;;;11.07;4.25;;;;;;;-10.68;68.04;99034.50;4864638;29;20073;-85
2021/12/24 05:04:10;;;;;;;9.10;4.53;;;;;;;-10.42;67.95;99059.09;4867326;29;20095;-88
2021/12/24 05:06:48;;;;;;;11.73;5.60;;;;;;;-10.25;67.92;99075.44;4866661;29;20087;-87
2021/12/24 05:09:20;;;;;;;9.23;4.72;;;;;;;-10.27;67.60;99080.38;4865462;29;20067;-88
2021/12/24 05:11:48;;;;;;;9.85;4.15;;;;;;;-10.29;67.99;99076.88;4920007;29;20067;-89
2021/12/24 05:14:18;;;;;;;5.97;3.47;;;;;;;-10.32;68.16;99059.88;4890989;29;20108;-87
2021/12/24 05:23:11;;;;;;;8.10;3.15;;;;;;;-10.49;67.81;99060.31;4924936;29;20058;-82
2021/12/24 05:25:44;;;;;;;8.68;4.20;;;;;;;-10.51;68.00;99071.94;4941989;29;20036;-79
2021/12/24 05:28:12;;;;;;;7.25;3.55;;;;;;;-10.46;67.67;99044.50;4925786;29;20056;-78
2021/12/24 05:30:41;;;;;;;8.70;4.53;;;;;;;-10.37;67.52;99052.72;4911088;29;20197;-82
2021/12/24 05:33:13;;;;;;;10.95;4.70;;;;;;;-10.43;67.57;99052.28;4912243;29;20150;-81
2021/12/24 05:35:41;;;;;;;9.98;4.47;;;;;;;-10.50;67.88;99050.97;4902853;29;20143;-81
2021/12/24 05:38:10;;;;;;;8.48;3.75;;;;;;;-10.46;67.78;99062.16;4918903;29;20124;-80
2021/12/24 05:40:41;;;;;;;9.43;4.15;;;;;;;-10.84;67.67;98999.66;4902561;29;20110;-81
2021/12/24 05:43:09;;;;;;;7.18;3.72;;;;;;;-10.62;67.77;99058.53;4902386;29;20139;-81
2021/12/24 05:45:37;;;;;;;8.00;3.92;;;;;;;-10.56;68.10;99063.13;4923605;29;20060;-81
2021/12/24 05:48:24;;;;;;;8.52;4.13;;;;;;;-10.85;67.67;99013.06;4886450;29;20048;-81
2021/12/24 05:51:01;;;;;;;11.60;4.32;;;;;;;-10.94;67.95;99009.09;4902255;29;20182;-84
2021/12/24 05:53:47;;;;;;;9.60;3.72;;;;;;;-10.57;67.79;99048.75;4918607;29;20052;-83
2021/12/24 05:56:20;;;;;;;7.78;4.13;;;;;;;-10.69;67.70;99042.81;4904447;29;20512;-83
2021/12/24 05:58:52;;;;;;;7.22;3.88;;;;;;;-10.63;67.84;99040.75;4919403;29;20060;-82
2021/12/24 06:01:21;;;;;;;11.43;4.10;;;;;;;-10.54;67.47;99042.31;4902282;29;20060;-82
2021/12/24 06:03:50;;;;;;;7.28;3.92;;;;;;;-10.63;67.81;99035.69;4901652;29;20056;-84
2021/12/24 06:06:17;;;;;;;7.68;4.10;;;;;;;-10.53;67.74;99053.28;4902046;29;20056;-83
2021/12/24 06:08:44;;;;;;;10.45;4.28;;;;;;;-10.51;67.58;99050.09;4917394;29;20460;-85
2021/12/24 06:11:11;;;;;;;8.85;4.40;;;;;;;-10.51;67.82;99045.03;4906690;29;20059;-85
2021/12/24 06:13:39;;;;;;;9.93;4.68;;;;;;;-10.56;67.82;99041.31;4918884;29;20111;-84
2021/12/24 06:16:07;;;;;;;9.05;4.13;;;;;;;-10.56;67.57;99015.16;4919140;29;20064;-86
2021/12/24 06:19:01;;;;;;;8.02;3.85;;;;;;;-10.28;67.60;99052.47;4923310;29;20052;-85
2021/12/24 06:21:28;;;;;;;8.63;4.45;;;;;;;-10.23;67.11;99056.22;4919497;29;20059;-82
2021/12/24 06:23:56;;;;;;;10.43;4.40;;;;;;;-10.28;66.93;99038.22;4902850;29;20060;-84
2021/12/24 06:26:23;;;;;;;7.47;3.67;;;;;;;-10.28;67.59;99038.22;4919030;29;20147;-83
2021/12/24 06:28:50;;;;;;;11.68;4.90;;;;;;;-10.18;67.87;99055.78;4916988;29;20475;-82
2021/12/24 06:31:17;;;;;;;9.07;4.18;;;;;;;-10.20;67.08;99047.19;4917450;29;20428;-84
2021/12/24 06:33:45;;;;;;;7.20;3.80;;;;;;;-10.17;67.09;99042.38;4917950;29;20056;-84
2021/12/24 06:36:12;;;;;;;7.90;4.03;;;;;;;-10.13;66.64;99064.56;4918320;29;20099;-84
2021/12/24 06:38:39;;;;;;;10.35;4.68;;;;;;;-10.30;67.40;99032.22;4918307;29;20060;-84
2021/12/24 06:41:08;;;;;;;12.50;4.18;;;;;;;-10.22;67.04;99042.81;4917510;29;20062;-81
2021/12/24 06:43:36;;;;;;;7.45;4.00;;;;;;;-10.23;66.95;99031.84;4918362;29;20052;-83
2021/12/24 06:46:10;;;;;;;7.55;3.83;;;;;;;-10.07;66.91;99027.88;4918375;29;20067;-83
2021/12/24 06:48:38;;;;;;;10.85;4.72;;;;;;;-9.99;66.97;99042.81;4902504;29;20135;-84
2021/12/24 06:51:05;;;;;;;10.80;4.40;;;;;;;-9.95;66.94;99037.19;4917778;29;20056;-83
2021/12/24 06:53:32;;;;;;;10.13;4.53;;;;;;;-9.84;66.66;99053.13;4918170;29;20064;-84
2021/12/24 06:55:59;;;;;;;10.98;4.40;;;;;;;-9.71;66.78;99054.84;4886074;29;20510;-83
2021/12/24 06:58:27;;;;;;;9.40;4.35;;;;;;;-9.61;66.43;99034.50;4903885;29;20111;-85
2021/12/24 07:00:57;;;;;;;11.13;4.88;;;;;;;-9.56;66.01;99030.63;4902841;29;20063;-84
2021/12/24 07:04:36;;;;;;;8.88;4.45;;;;;;;-9.62;66.33;99036.91;4860442;29;20577;-82
2021/12/24 07:07:24;;;;;;;12.18;4.82;;;;;;;-9.65;66.17;99003.84;4858737;29;20069;-81
2021/12/24 07:10:25;;;;;;;12.38;4.88;;;;;;;-9.54;66.56;99006.31;4840455;29;20492;-82
2021/12/24 07:13:06;;;;;;;7.57;3.83;;;;;;;-9.38;65.65;99038.59;4837361;29;20088;-82
2021/12/24 07:15:33;;;;;;;7.72;4.13;;;;;;;-9.30;65.78;99037.47;4840827;29;20085;-82
2021/12/24 07:18:00;;;;;;;8.45;4.28;;;;;;;-9.36;65.60;99049.69;4825238;29;20168;-82
2021/12/24 07:20:27;;;;;;;10.48;4.63;;;;;;;-9.35;66.03;99050.59;4840830;29;20084;-83
2021/12/24 07:22:54;;;;;;;9.73;4.38;;;;;;;-9.40;66.18;99037.59;4840365;29;20427;-83
2021/12/24 07:25:21;;;;;;;9.93;4.35;;;;;;;-9.37;65.95;99047.06;4840528;29;20152;-83
2021/12/24 07:27:48;;;;;;;10.13;4.40;;;;;;;-9.44;65.94;99033.13;4864044;29;20045;-84
2021/12/24 07:30:16;;;;;;;11.75;4.82;;;;;;;-9.31;66.64;99050.91;4917918;29;20525;-83
2021/12/24 07:32:44;;;;;;;10.45;4.53;;;;;;;-9.25;65.72;99037.78;4937367;29;20511;-84
2021/12/24 07:35:12;;;;;;;8.65;4.75;;;;;;;-9.21;66.52;99034.69;4927694;29;20591;-83
2021/12/24 07:37:41;;;;;;;7.70;4.15;;;;;;;-9.18;66.24;99045.03;4917294;29;20060;-82
2021/12/24 07:40:09;;;;;;;11.35;4.95;;;;;;;-9.20;66.67;99030.53;4903846;29;20055;-83
2021/12/24 07:42:38;;;;;;;11.43;5.20;;;;;;;-9.14;66.45;99046.09;4900600;29;20424;-83
2021/12/24 07:45:07;;;;;;;8.48;3.85;;;;;;;-9.17;66.59;99041.69;4900073;29;20056;-81
2021/12/24 07:47:39;;;;;;;11.75;4.38;;;;;;;-9.07;66.00;99043.22;4918155;29;20052;-82
2021/12/24 07:52:57;;;;;;;7.90;4.20;;;;;;;-9.26;66.07;99041.09;4901355;29;20060;-82
2021/12/24 07:55:27;;;;;;;12.05;4.50;;;;;;;-9.15;66.10;99036.75;4917179;29;20051;-83
2021/12/24 07:57:54;;;;;;;8.45;4.10;;;;;;;-9.18;66.42;99024.78;4900202;29;20063;-83
2021/12/24 08:00:27;;;;;;;8.57;4.47;;;;;;;-9.03;66.21;99039.22;4900772;29;20068;-82
2021/12/24 08:03:01;;;;;;;9.73;4.47;;;;;;;-8.90;66.28;99034.22;4919570;29;20052;-83
2021/12/24 08:05:57;;;;;;;11.18;4.57;;;;;;;-9.26;66.02;98987.97;4931297;29;20048;-82
2021/12/24 08:08:32;;;;;;;10.27;5.07;;;;;;;-8.92;66.55;99023.13;4932306;29;20084;-80
2021/12/24 08:10:59;;;;;;;9.52;4.55;;;;;;;-8.77;65.75;99036.78;4928503;29;20047;-84
2021/12/24 08:13:26;;;;;;;10.00;4.35;;;;;;;-8.73;65.67;99031.16;4914854;29;20143;-83
2021/12/24 08:15:54;;;;;;;11.32;4.57;;;;;;;-8.71;65.70;99016.03;4930398;29;20067;-83
2021/12/24 08:18:21;;;;;;;8.18;4.18;;;;;;;-8.60;66.02;99017.63;4923510;29;20124;-82
2021/12/24 08:20:51;;;;;;;9.68;4.93;;;;;;;-8.58;65.38;99018.59;4927627;29;20056;-84
2021/12/24 08:23:18;;;;;;;8.13;4.38;;;;;;;-8.39;65.42;99040.00;4927368;29;20143;-82
2021/12/24 08:25:46;;;;;;;10.80;4.55;;;;;;;-8.39;64.99;99024.81;4931159;29;20508;-83
2021/12/24 08:28:13;;;;;;;10.45;4.40;;;;;;;-8.81;65.31;98981.66;4921589;29;20132;-83
2021/12/24 08:30:40;;;;;;;8.88;4.25;;;;;;;-8.43;64.98;98998.47;4920942;29;20048;-83
2021/12/24 08:33:14;;;;;;;10.07;4.38;;;;;;;-8.29;64.49;99035.63;4923107;29;20104;-85
2021/12/24 08:35:41;;;;;;;11.27;5.43;;;;;;;-8.18;64.00;99005.91;4905987;29;20481;-82
2021/12/24 08:38:08;;;;;;;9.07;4.70;;;;;;;-8.37;64.20;98983.59;4920670;29;20060;-83
2021/12/24 08:40:40;;;;;;;11.82;5.10;;;;;;;-8.31;63.67;99016.06;4910499;29;20107;-87
2021/12/24 08:43:19;;;;;;;;;;;;;;;-8.39;64.86;98996.94;4919622;29;20158;-85
2021/12/24 08:45:45;;;;;;;9.37;4.23;;;;;;;-8.35;64.28;98983.69;4906305;29;19933;-82
2021/12/24 08:48:13;;;;;;;11.40;5.35;;;;;;;-8.27;64.37;98996.06;4921985;29;20064;-81
2021/12/24 08:50:40;;;;;;;10.15;4.80;;;;;;;-8.23;64.21;98970.16;4920807;29;20048;-83
2021/12/24 08:53:08;;;;;;;10.73;5.18;;;;;;;-8.04;63.58;98986.50;4920829;29;20295;-85
2021/12/24 08:55:36;;;;;;;12.43;5.57;;;;;;;-7.95;63.52;98969.34;4921910;29;20052;-84
2021/12/24 08:58:04;;;;;;;10.55;5.00;;;;;;;-7.90;62.45;98980.63;4918405;29;20083;-82
2021/12/24 09:00:32;;;;;;;11.23;4.82;;;;;;;-8.05;63.78;98967.00;4903448;29;20063;-82
2021/12/24 09:03:03;;;;;;;12.68;5.80;;;;;;;-7.87;63.38;98967.28;4923293;29;20076;-83
2021/12/24 09:05:31;;;;;;;10.68;4.28;;;;;;;-7.95;63.20;98971.88;4915250;29;20048;-82
2021/12/24 09:07:58;;;;;;;10.93;5.43;;;;;;;-7.97;63.40;98977.63;4931044;29;20146;-83
2021/12/24 09:10:25;;;;;;;13.98;6.00;;;;;;;-7.85;63.23;98979.25;4932127;29;20052;-82
2021/12/24 09:12:54;;;;;;;11.20;5.13;;;;;;;-7.99;63.50;98948.78;4931437;29;20056;-82
2021/12/24 09:15:27;;;;;;;12.93;5.60;;;;;;;-7.84;63.22;98963.25;4926410;29;20048;-83
2021/12/24 09:17:54;;;;;;;10.98;4.95;;;;;;;-7.94;63.08;98948.25;4924129;29;20052;-83
2021/12/24 09:20:29;;;;;;;10.98;5.50;;;;;;;-7.89;63.10;98956.16;4929520;29;20056;-81
2021/12/24 09:22:59;;;;;;;11.15;5.55;;;;;;;-7.74;63.53;98954.56;4930142;29;20080;-82
2021/12/24 09:25:27;;;;;;;;;;;;;;;-7.66;62.95;98963.53;4911131;29;20052;-84
2021/12/24 09:27:55;;;;;;;11.82;5.63;;;;;;;-7.73;62.90;98930.94;4937312;29;19907;-82
2021/12/24 09:30:23;;;;;;;12.23;5.90;;;;;;;-7.90;63.20;98932.44;4926009;29;20111;-80
2021/12/24 09:32:50;;;;;;;15.73;6.57;;;;;;;-7.77;63.90;98961.09;4914724;29;20052;-83
2021/12/24 09:35:18;;;;;;;17.30;6.30;;;;;;;-7.83;63.27;98949.81;4919074;29;20087;-87
2021/12/24 09:37:49;;;;;;;13.52;5.40;;;;;;;-7.82;63.60;98923.66;4915823;29;20155;-82
2021/12/24 09:40:18;;;;;;;14.70;6.10;;;;;;;-7.75;62.82;98942.66;4901791;29;20059;-82
2021/12/24 09:42:46;;;;;;;13.73;6.15;;;;;;;-7.84;63.43;98950.56;4902589;29;20138;-83
2021/12/24 09:45:15;;;;;;;15.82;6.45;;;;;;;-7.93;63.44;98946.63;4918598;29;20068;-81
2021/12/24 09:47:43;;;;;;;13.10;6.32;;;;;;;-7.90;63.35;98945.13;4886543;29;20495;-82
2021/12/24 09:50:14;;;;;;;14.32;6.75;;;;;;;-7.95;63.52;98945.66;4919551;29;20056;-81
2021/12/24 09:52:44;;;;;;;14.20;6.28;;;;;;;-7.91;63.80;98957.72;4922928;29;20067;-80
2021/12/24 09:55:18;;;;;;;15.38;6.50;;;;;;;-7.93;63.54;98921.28;4902473;29;20062;-82
2021/12/24 09:57:48;;;;;;;14.15;6.18;;;;;;;-7.82;63.40;98946.47;4919607;29;20056;-85
2021/12/24 10:00:21;;;;;;;12.80;5.32;;;;;;;-7.87;64.00;98934.31;4903141;29;20058;-85
2021/12/24 10:02:54;;;;;;;13.07;6.13;;;;;;;-8.03;63.87;98925.75;4901486;29;20568;-81
2021/12/24 10:05:28;;;;;;;13.32;6.00;;;;;;;-8.16;63.64;98905.50;4919569;29;20052;-83
2021/12/24 10:08:11;;;;;;;14.90;6.50;;;;;;;-8.11;64.17;98926.97;4903955;29;20048;-81
2021/12/24 10:10:51;;;;;;;17.25;6.63;;;;;;;-8.21;64.37;98929.72;4922721;29;20059;-81
2021/12/24 10:13:27;;;;;;;14.55;5.93;;;;;;;-8.00;63.86;98931.78;4919818;29;20052;-81
2021/12/24 10:16:01;;;;;;;14.50;5.80;;;;;;;-7.92;63.75;98939.09;4918389;29;20055;-80
2021/12/24 10:18:38;;;;;;;15.35;5.82;;;;;;;-7.86;64.10;98936.06;4917600;29;20418;-81
2021/12/24 10:21:13;;;;;;;13.95;5.97;;;;;;;-7.86;63.58;98941.13;4918011;29;20099;-83
2021/12/24 10:23:41;;;;;;;13.95;6.05;;;;;;;-7.74;63.64;98929.19;4917914;29;20056;-80
2021/12/24 10:26:15;;;;;;;17.20;6.72;;;;;;;-7.81;63.67;98942.28;4917193;29;20060;-82
2021/12/24 10:29:01;;;;;;;16.58;6.55;;;;;;;-7.70;63.97;98927.72;4917764;29;20063;-80
2021/12/24 10:31:36;;;;;;;16.88;6.53;;;;;;;-7.82;63.94;98933.78;4918221;29;20087;-80
2021/12/24 10:34:06;;;;;;;14.10;6.57;;;;;;;-7.77;63.38;98935.75;4917600;29;20115;-81
2021/12/24 10:36:49;;;;;;;11.57;5.63;;;;;;;-7.79;63.98;98937.31;4917817;29;20064;-80
2021/12/24 10:39:17;;;;;;;13.02;5.93;;;;;;;-7.92;64.14;98917.94;4918245;29;20078;-81
2021/12/24 10:41:47;;;;;;;14.48;6.47;;;;;;;-7.92;64.35;98934.00;4902402;29;20107;-82
2021/12/24 10:44:20;;;;;;;14.82;6.53;;;;;;;-7.99;64.27;98944.56;4901765;29;20148;-82
2021/12/24 10:47:19;;;;;;;16.10;6.97;;;;;;;-8.01;64.15;98930.06;4918534;29;20062;-80
2021/12/24 10:50:25;;;;;;;15.30;6.93;;;;;;;-8.07;64.34;98931.41;4900217;29;20051;-81
2021/12/24 10:53:17;;;;;;;15.32;6.78;;;;;;;-8.23;64.49;98938.88;4917961;29;20500;-82
2021/12/24 10:55:55;;;;;;;12.65;6.35;;;;;;;-8.33;63.75;98904.47;4917223;29;20470;-81
2021/12/24 10:58:25;;;;;;;15.40;6.68;;;;;;;-8.21;64.19;98923.78;4900801;29;20147;-81
2021/12/24 11:00:55;;;;;;;13.88;6.13;;;;;;;-8.34;64.01;98912.88;4900485;29;20048;-81
2021/12/24 11:03:25;;;;;;;14.18;7.20;;;;;;;-8.34;64.00;98912.88;4901259;29;20076;-81
2021/12/24 11:06:03;;;;;;;16.85;8.18;;;;;;;-8.42;64.04;98911.53;4917553;29;20063;-82
2021/12/24 11:08:30;;;;;;;16.50;7.45;;;;;;;-8.42;65.08;98920.81;4917200;29;20083;-79
2021/12/24 11:11:01;;;;;;;17.13;7.32;;;;;;;-8.38;64.59;98908.38;4900613;29;20155;-80
2021/12/24 11:13:39;;;;;;;14.88;6.30;;;;;;;-8.26;63.95;98918.38;4917885;29;20142;-80
2021/12/24 11:16:17;;;;;;;13.68;6.57;;;;;;;-8.36;63.74;98906.81;4917318;29;20048;-80
2021/12/24 11:18:53;;;;;;;13.23;5.78;;;;;;;-8.39;64.35;98913.34;4901046;29;20052;-81
2021/12/24 11:21:23;;;;;;;14.50;7.07;;;;;;;-8.47;64.48;98912.91;4917932;29;20121;-80
2021/12/24 11:23:50;;;;;;;14.75;6.85;;;;;;;-8.46;64.71;98915.53;4917067;29;20072;-78
2021/12/24 11:26:23;;;;;;;14.82;6.68;;;;;;;-8.46;64.82;98932.38;4900482;29;20540;-80
2021/12/24 11:28:50;;;;;;;13.90;6.22;;;;;;;-8.45;64.35;98917.28;4900282;29;20087;-82
2021/12/24 11:31:23;;;;;;;17.38;6.60;;;;;;;-8.51;64.20;98921.09;4917501;29;20084;-81
2021/12/24 11:33:52;;;;;;;16.88;7.43;;;;;;;-8.55;65.06;98922.56;4917899;29;20477;-81
2021/12/24 11:36:21;;;;;;;15.15;7.40;;;;;;;-8.61;64.77;98914.56;4916759;29;20052;-81
2021/12/24 11:39:00;;;;;;;17.75;6.75;;;;;;;-8.61;64.53;98909.50;4915771;29;20121;-82
2021/12/24 11:41:30;;;;;;;17.10;7.00;;;;;;;-8.63;64.97;98915.25;4917310;29;20059;-81
2021/12/24 11:44:01;;;;;;;20.08;7.15;;;;;;;-8.68;64.49;98917.50;4901456;29;20080;-81
2021/12/24 11:46:29;;;;;;;17.27;6.88;;;;;;;-8.67;64.86;98898.97;4918563;29;20515;-80
2021/12/24 11:48:56;;;;;;;16.25;6.80;;;;;;;-8.57;65.25;98908.91;4917830;29;20488;-82
2021/12/24 11:51:33;;;;;;;14.98;6.38;;;;;;;-8.61;65.21;98903.56;4916465;29;20590;-80
2021/12/24 11:54:04;;;;;;;16.52;7.18;;;;;;;-8.58;65.00;98922.38;4918953;29;20501;-80
2021/12/24 11:56:41;;;;;;;;;;;;;;;-8.67;64.78;98916.69;4916608;29;20048;-83
2021/12/24 11:59:08;;;;;;;17.80;7.00;;;;;;;-8.66;64.99;98906.69;4913726;29;19927;-81
2021/12/24 12:01:41;;;;;;;16.27;6.90;;;;;;;-8.68;64.95;98893.03;4903223;29;20122;-80
2021/12/24 12:04:13;;;;;;;20.35;7.80;;;;;;;-8.91;65.04;98880.56;4920533;29;20044;-82
2021/12/24 12:06:44;;;;;;;14.93;6.88;;;;;;;-8.81;65.02;98885.47;4920466;29;20055;-82
2021/12/24 12:09:12;;;;;;;13.93;6.55;;;;;;;-8.70;65.07;98911.47;4918035;29;20044;-82
2021/12/24 12:11:42;;;;;;;14.80;6.18;;;;;;;-8.77;64.87;98925.38;4923625;29;20567;-81
2021/12/24 12:14:14;;;;;;;15.63;6.50;;;;;;;-8.74;65.42;98922.16;4888403;29;20047;-81
2021/12/24 12:16:41;;;;;;;15.55;7.22;;;;;;;-8.77;65.27;98927.03;4923572;29;20451;-83
2021/12/24 12:19:24;;;;;;;13.52;6.60;;;;;;;-8.80;65.34;98930.22;4909042;29;20063;-82
2021/12/24 12:22:23;;;;;;;14.55;6.45;;;;;;;-8.83;65.41;98922.44;4920491;29;20500;-83
2021/12/24 12:25:00;;;;;;;17.40;6.70;;;;;;;-8.86;65.62;98923.13;4930541;29;20060;-82
2021/12/24 12:27:38;;;;;;;17.75;7.10;;;;;;;-8.92;65.34;98939.59;4918018;29;20480;-81
2021/12/24 12:30:34;;;;;;;11.35;5.45;;;;;;;-8.89;66.23;98939.78;4902664;29;20060;-81
2021/12/24 12:33:17;;;;;;;14.30;6.57;;;;;;;-8.96;65.89;98919.91;4923725;29;20401;-81
2021/12/24 12:35:47;;;;;;;17.20;7.15;;;;;;;-9.07;65.78;98911.63;4919919;29;20060;-82
2021/12/24 12:38:33;;;;;;;16.88;7.43;;;;;;;-9.03;66.15;98931.28;4917757;29;20056;-81
2021/12/24 12:41:26;;;;;;;16.33;7.43;;;;;;;-8.99;65.84;98927.28;4897042;29;20546;-81
2021/12/24 12:43:54;;;;;;;14.80;6.60;;;;;;;-9.16;65.88;98926.19;4919834;29;20518;-84
2021/12/24 12:46:33;;;;;;;14.65;7.40;;;;;;;-9.07;65.98;98934.41;4873007;29;20469;-83
2021/12/24 12:49:03;;;;;;;13.75;6.25;;;;;;;-9.11;66.42;98924.84;4903754;29;20056;-81
2021/12/24 12:51:49;;;;;;;;;;;;;;;-9.16;65.87;98928.72;4930122;29;20062;-80
2021/12/24 12:54:33;;;;;;;21.73;8.50;;;;;;;-9.16;65.76;98926.19;4908358;29;19931;-79
2021/12/24 12:57:18;;;;;;;17.45;8.40;;;;;;;-9.11;66.19;98924.84;4904060;29;20048;-82
2021/12/24 13:00:07;;;;;;;18.60;8.13;;;;;;;-9.14;66.43;98932.22;4887492;29;20111;-82
2021/12/24 13:02:56;;;;;;;17.08;7.63;;;;;;;-9.08;65.90;98928.47;4919286;29;20056;-82
2021/12/24 13:05:30;;;;;;;17.88;8.35;;;;;;;-9.10;66.17;98919.91;4920011;29;20108;-82
2021/12/24 13:08:08;;;;;;;17.75;7.95;;;;;;;-9.07;65.55;98922.63;4886940;29;20060;-81
2021/12/24 13:10:36;;;;;;;18.83;8.57;;;;;;;-9.15;66.43;98926.28;4919459;29;20044;-83
2021/12/24 13:13:05;;;;;;;19.67;7.88;;;;;;;-9.10;66.30;98919.00;4902499;29;20082;-80
2021/12/24 13:15:45;;;;;;;22.73;7.97;;;;;;;-9.03;67.07;98928.75;4902630;29;20056;-81
2021/12/24 13:18:33;;;;;;;16.33;7.55;;;;;;;-9.12;66.59;98920.56;4886965;29;20408;-81
2021/12/24 13:23:36;;;;;;;20.42;7.85;;;;;;;-9.15;66.31;98901.00;4906184;29;20130;-81